Time;durP1;ratioP1;P1;durP2;ratioP2;P2;SDS_P1;SDS_P2;PMS_P1;PMS_P2;Temp;Humidity;BMP_temperature;BMP_pressure;BME280_temperature;BME280_humidity;BME280_pressure;Samples;Min_cycle;Max_cycle;Signal;HPM_P1;HPM_P2
2023/06/26 00:01:43;;;;;;;9.27;7.33;;;;;;;23.21;65.25;101051.06;5034463;28;20033;-87
2023/06/26 00:04:14;;;;;;;9.93;7.27;;;;;;;23.16;64.93;101054.72;5017785;28;20038;-86
2023/06/26 00:06:40;;;;;;;9.32;7.10;;;;;;;23.12;65.39;101042.63;5018850;28;20152;-86
2023/06/26 00:09:05;;;;;;;7.78;6.43;;;;;;;23.07;65.45;101048.16;5034259;28;20485;-86
2023/06/26 00:11:33;;;;;;;12.57;7.77;;;;;;;23.01;66.13;101052.94;5034315;28;20091;-86
2023/06/26 00:14:01;;;;;;;8.02;7.22;;;;;;;22.94;65.86;101049.69;5034200;28;20033;-88
2023/06/26 00:16:27;;;;;;;7.78;6.97;;;;;;;22.85;67.13;101048.69;5034289;28;20488;-85
2023/06/26 00:18:53;;;;;;;9.82;7.75;;;;;;;22.76;67.55;101041.06;5017950;28;20036;-85
2023/06/26 00:21:19;;;;;;;8.23;7.28;;;;;;;22.70;68.16;101050.50;5034187;28;20038;-86
2023/06/26 00:23:45;;;;;;;9.97;7.37;;;;;;;22.63;68.45;101047.25;5033980;28;20026;-86
2023/06/26 00:26:11;;;;;;;8.73;7.22;;;;;;;22.57;69.09;101049.28;5034275;28;20041;-86
2023/06/26 00:28:37;;;;;;;9.48;7.57;;;;;;;22.54;69.09;101043.47;5001107;28;20030;-86
2023/06/26 00:31:02;;;;;;;8.83;7.70;;;;;;;22.49;69.45;101049.88;5033845;28;20045;-86
2023/06/26 00:33:27;;;;;;;8.43;7.53;;;;;;;22.43;69.75;101051.06;5033978;28;20029;-86
2023/06/26 00:35:53;;;;;;;9.57;7.90;;;;;;;22.36;69.78;101051.38;5017343;28;20083;-86
2023/06/26 00:38:18;;;;;;;9.33;7.57;;;;;;;22.28;70.42;101042.84;5017237;28;20052;-86
2023/06/26 00:40:44;;;;;;;8.27;7.47;;;;;;;22.21;70.95;101046.78;5035038;28;20084;-86
2023/06/26 00:43:12;;;;;;;11.47;7.80;;;;;;;22.15;71.37;101045.19;5032995;28;20492;-86
2023/06/26 00:45:38;;;;;;;10.48;8.10;;;;;;;22.08;71.51;101044.69;5034682;28;20076;-86
2023/06/26 00:48:04;;;;;;;9.97;8.03;;;;;;;21.99;72.64;101054.72;5033205;28;20046;-85
2023/06/26 00:50:29;;;;;;;10.87;8.43;;;;;;;21.94;72.84;101054.72;5000662;28;20447;-86
2023/06/26 00:53:00;;;;;;;9.27;7.75;;;;;;;21.89;73.40;101069.41;5016924;28;20037;-86
2023/06/26 00:55:26;;;;;;;9.40;7.77;;;;;;;21.83;73.52;101059.50;5017842;28;20037;-86
2023/06/26 00:57:51;;;;;;;9.65;7.63;;;;;;;21.81;72.90;101048.75;5032884;28;20527;-86
2023/06/26 01:00:17;;;;;;;8.43;7.53;;;;;;;21.79;73.57;101066.69;5033368;28;20033;-86
2023/06/26 01:02:43;;;;;;;11.00;7.93;;;;;;;21.76;73.78;101068.13;5034678;28;20041;-86
2023/06/26 01:05:12;;;;;;;9.67;8.27;;;;;;;21.72;73.81;101067.84;5017487;28;20037;-86
2023/06/26 01:07:43;;;;;;;12.15;8.02;;;;;;;21.67;73.26;101062.38;5017663;28;20102;-86
2023/06/26 01:10:11;;;;;;;9.98;7.18;;;;;;;21.64;73.38;101073.16;5033469;28;20029;-86
2023/06/26 01:12:38;;;;;;;9.93;7.32;;;;;;;21.62;73.34;101073.44;5034359;28;20037;-86
2023/06/26 01:15:04;;;;;;;9.95;7.10;;;;;;;21.59;73.33;101074.00;5034279;28;20107;-86
2023/06/26 01:17:31;;;;;;;12.43;6.97;;;;;;;21.56;73.63;101074.56;5000220;28;20072;-86
2023/06/26 01:20:02;;;;;;;10.00;7.30;;;;;;;21.53;73.53;101070.44;5033112;28;20038;-86
2023/06/26 01:22:44;;;;;;;10.95;6.97;;;;;;;21.49;73.36;101079.53;5033205;28;20421;-86
2023/06/26 01:25:47;;;;;;;9.68;6.75;;;;;;;21.45;73.45;101083.97;5033064;28;20037;-87
2023/06/26 01:28:17;;;;;;;10.10;6.30;;;;;;;21.42;72.96;101081.78;5033333;28;20029;-86
2023/06/26 01:30:44;;;;;;;9.73;6.50;;;;;;;21.38;73.91;101087.88;5032750;28;20068;-86
2023/06/26 01:33:12;;;;;;;8.00;5.93;;;;;;;21.35;73.69;101087.63;5016411;28;20044;-86
2023/06/26 01:35:38;;;;;;;7.70;5.80;;;;;;;21.30;74.13;101093.97;5032718;28;20068;-86
2023/06/26 01:38:17;;;;;;;7.27;6.00;;;;;;;21.25;74.03;101084.91;5033004;28;20077;-86
2023/06/26 01:40:46;;;;;;;7.00;5.55;;;;;;;21.25;74.66;101082.13;5034122;28;20033;-86
2023/06/26 01:43:33;;;;;;;8.07;5.63;;;;;;;21.17;73.93;101084.38;5000856;28;20061;-86
2023/06/26 01:46:04;;;;;;;7.05;5.25;;;;;;;21.14;72.87;101095.97;5032484;28;20108;-86
2023/06/26 01:48:48;;;;;;;7.38;4.75;;;;;;;21.10;73.27;101092.13;5033219;28;20057;-86
2023/06/26 01:51:17;;;;;;;8.17;5.10;;;;;;;21.06;72.75;101099.28;5017042;28;20111;-86
2023/06/26 01:53:50;;;;;;;7.65;5.05;;;;;;;21.01;72.80;101111.16;5033544;28;20465;-86
2023/06/26 01:56:18;;;;;;;8.35;4.80;;;;;;;20.99;73.26;101105.13;5032584;28;20488;-86
2023/06/26 01:58:47;;;;;;;7.93;5.15;;;;;;;20.93;73.82;101105.41;5032166;28;20029;-87
2023/06/26 02:01:13;;;;;;;8.20;5.03;;;;;;;20.91;74.04;101113.13;5032183;28;20492;-86
2023/06/26 02:03:39;;;;;;;7.67;4.57;;;;;;;20.85;73.94;101104.03;5033430;28;20068;-86
2023/06/26 02:06:04;;;;;;;11.23;4.90;;;;;;;20.80;74.26;101112.31;5015992;28;20029;-85
2023/06/26 02:08:29;;;;;;;7.78;5.18;;;;;;;20.77;73.86;101115.63;5032275;28;20033;-86
2023/06/26 02:10:57;;;;;;;8.67;5.13;;;;;;;20.70;73.51;101115.06;5033504;28;20033;-86
2023/06/26 02:13:25;;;;;;;6.45;4.80;;;;;;;20.62;74.14;101113.66;5032312;28;20030;-86
2023/06/26 02:15:53;;;;;;;9.17;5.00;;;;;;;20.56;74.90;101115.59;5031546;28;20041;-86
2023/06/26 02:18:21;;;;;;;7.18;5.20;;;;;;;20.50;75.85;101113.94;5031935;28;20072;-86
2023/06/26 02:20:46;;;;;;;9.70;5.25;;;;;;;20.41;76.40;101118.38;5032267;28;20030;-86
2023/06/26 02:23:12;;;;;;;9.13;5.27;;;;;;;20.37;76.41;101120.00;5032393;28;20041;-86
2023/06/26 02:25:41;;;;;;;7.25;4.72;;;;;;;20.29;76.17;101111.19;5033311;28;20033;-86
2023/06/26 02:28:06;;;;;;;10.55;5.75;;;;;;;20.24;76.11;101115.84;4999527;28;20130;-86
2023/06/26 02:30:32;;;;;;;7.00;4.43;;;;;;;20.16;76.35;101120.81;4999002;28;20061;-86
2023/06/26 02:32:57;;;;;;;6.93;4.40;;;;;;;20.11;76.40;101114.50;5033233;28;20076;-86
2023/06/26 02:35:22;;;;;;;9.23;4.60;;;;;;;20.05;76.81;101135.69;5031956;28;20037;-86
2023/06/26 02:37:48;;;;;;;9.55;3.97;;;;;;;19.98;76.77;101121.34;5032233;28;20531;-86
2023/06/26 02:40:13;;;;;;;7.70;4.30;;;;;;;19.94;76.36;101123.78;5033175;28;20034;-86
2023/06/26 02:42:41;;;;;;;11.00;4.07;;;;;;;19.93;76.20;101135.09;5031806;28;20048;-86
2023/06/26 02:45:07;;;;;;;7.78;3.90;;;;;;;19.87;76.26;101130.66;5031413;28;20037;-86
2023/06/26 02:47:39;;;;;;;12.00;4.50;;;;;;;19.82;76.28;101127.91;5015240;28;20054;-87
2023/06/26 02:50:05;;;;;;;7.18;4.13;;;;;;;19.77;77.06;101137.78;5031693;28;20100;-86
2023/06/26 02:52:31;;;;;;;8.20;4.30;;;;;;;19.71;77.42;101149.03;4999300;28;20042;-85
2023/06/26 02:54:56;;;;;;;5.55;4.10;;;;;;;19.68;77.61;101146.81;5031652;28;20486;-85
2023/06/26 02:57:22;;;;;;;15.47;4.17;;;;;;;19.64;77.84;101149.28;5015392;28;20555;-86
2023/06/26 02:59:47;;;;;;;8.90;4.17;;;;;;;19.59;77.90;101158.34;5031892;28;20112;-86
2023/06/26 03:02:28;;;;;;;;;;;;;;;;;;;;;
2023/06/26 03:04:54;;;;;;;8.13;4.00;;;;;;;19.50;79.88;101172.88;5032957;28;20028;-85
2023/06/26 03:07:19;;;;;;;6.30;4.17;;;;;;;19.47;80.15;101160.47;5036754;28;20112;-86
2023/06/26 03:09:45;;;;;;;8.13;4.30;;;;;;;19.42;81.24;101155.78;5035321;28;20302;-86
2023/06/26 03:12:10;;;;;;;9.73;4.10;;;;;;;19.39;82.40;101167.31;5035498;28;20029;-86
2023/06/26 03:14:36;;;;;;;11.77;4.63;;;;;;;19.35;82.51;101168.13;5036376;28;20025;-86
2023/06/26 03:17:03;;;;;;;9.57;4.10;;;;;;;19.30;83.12;101163.44;5019165;28;20355;-85
2023/06/26 03:19:29;;;;;;;10.50;4.97;;;;;;;19.26;84.09;101165.88;5003125;28;20053;-85
2023/06/26 03:21:55;;;;;;;9.77;4.53;;;;;;;19.25;84.53;101164.22;5035088;28;20029;-85
2023/06/26 03:24:20;;;;;;;11.03;4.30;;;;;;;19.23;85.23;101168.34;5036245;28;20532;-86
2023/06/26 03:26:46;;;;;;;13.27;5.00;;;;;;;19.19;85.91;101167.22;5018766;28;20491;-85
2023/06/26 03:29:11;;;;;;;12.10;4.33;;;;;;;19.18;86.37;101160.88;5018634;28;20038;-85
2023/06/26 03:31:37;;;;;;;13.03;4.50;;;;;;;19.15;86.73;101164.16;5035122;28;20029;-85
2023/06/26 03:34:05;;;;;;;8.93;4.10;;;;;;;19.14;86.52;101168.00;5018486;28;20037;-85
2023/06/26 03:36:30;;;;;;;10.67;4.03;;;;;;;19.14;86.68;101168.00;5018431;28;20037;-85
2023/06/26 03:38:56;;;;;;;11.00;5.10;;;;;;;19.14;86.89;101173.50;5018435;28;20055;-86
2023/06/26 03:41:23;;;;;;;10.38;4.35;;;;;;;19.09;87.81;101171.56;5018554;28;20033;-85
2023/06/26 03:43:48;;;;;;;10.33;4.77;;;;;;;19.06;88.67;101174.00;5034943;28;20030;-86
2023/06/26 03:46:14;;;;;;;15.50;4.38;;;;;;;19.05;88.81;101167.66;5035511;28;20033;-86
2023/06/26 03:48:39;;;;;;;8.80;4.63;;;;;;;19.05;89.54;101169.59;5035849;28;20045;-86
2023/06/26 03:51:06;;;;;;;8.03;4.40;;;;;;;19.02;90.11;101170.94;5034673;28;20034;-85
2023/06/26 03:53:32;;;;;;;13.32;4.95;;;;;;;19.01;91.19;101182.22;5035084;28;20042;-86
2023/06/26 03:55:57;;;;;;;10.30;4.57;;;;;;;18.98;92.29;101202.00;5034567;28;20026;-86
2023/06/26 03:58:23;;;;;;;10.70;5.07;;;;;;;18.93;92.34;101178.84;5034378;28;20129;-85
2023/06/26 04:00:51;;;;;;;11.70;4.60;;;;;;;18.94;92.72;101179.69;5034309;28;20397;-86
2023/06/26 04:03:16;;;;;;;12.02;4.22;;;;;;;18.96;93.04;101191.25;5034544;28;20084;-86
2023/06/26 04:05:42;;;;;;;15.83;5.10;;;;;;;18.96;93.44;101199.50;5034328;28;20436;-85
2023/06/26 04:08:08;;;;;;;9.07;4.63;;;;;;;19.00;93.52;101205.28;5034700;28;20033;-86
2023/06/26 04:10:38;;;;;;;16.08;4.55;;;;;;;18.99;93.88;101209.97;5034138;28;20025;-86
2023/06/26 04:13:06;;;;;;;12.52;5.22;;;;;;;19.00;94.20;101222.66;5018208;28;20040;-86
2023/06/26 04:15:32;;;;;;;11.68;5.70;;;;;;;19.01;94.56;101217.97;5033666;28;20060;-86
2023/06/26 04:18:00;;;;;;;12.07;5.93;;;;;;;19.00;94.81;101221.78;5035743;28;20461;-85
2023/06/26 04:20:26;;;;;;;12.68;5.05;;;;;;;19.02;95.34;101220.44;5035374;28;20385;-86
2023/06/26 04:22:51;;;;;;;12.17;5.07;;;;;;;19.05;95.66;101219.91;5034145;28;20037;-86
2023/06/26 04:25:19;;;;;;;13.80;5.53;;;;;;;19.09;95.90;101209.25;5035239;28;20033;-85
2023/06/26 04:27:44;;;;;;;17.23;5.63;;;;;;;19.14;95.80;101220.25;5034051;28;20108;-86
2023/06/26 04:30:12;;;;;;;18.20;5.83;;;;;;;19.19;96.02;101212.06;5034137;28;20036;-86
2023/06/26 04:32:38;;;;;;;16.80;5.72;;;;;;;19.24;96.54;101223.09;5033755;28;20497;-86
2023/06/26 04:35:04;;;;;;;15.17;5.97;;;;;;;19.32;96.66;101226.44;5033439;28;20080;-86
2023/06/26 04:37:29;;;;;;;17.00;6.10;;;;;;;19.35;96.53;101223.97;5017332;28;20287;-86
2023/06/26 04:39:55;;;;;;;17.73;5.73;;;;;;;19.33;97.02;101231.66;5035104;28;20030;-85
2023/06/26 04:42:21;;;;;;;14.63;5.77;;;;;;;19.27;97.88;101224.47;5033839;28;20029;-85
2023/06/26 04:44:47;;;;;;;16.85;6.32;;;;;;;19.30;97.68;101232.22;5033887;28;20449;-86
2023/06/26 04:47:14;;;;;;;18.05;5.45;;;;;;;19.28;98.01;101237.97;5016791;28;20092;-86
2023/06/26 04:49:43;;;;;;;13.63;5.30;;;;;;;19.26;98.26;101239.31;5017246;28;20045;-86
2023/06/26 04:52:09;;;;;;;19.42;5.90;;;;;;;19.25;98.63;101243.16;5034917;28;20120;-86
2023/06/26 04:54:34;;;;;;;17.77;5.50;;;;;;;19.22;98.44;101254.69;5000629;28;20120;-86
2023/06/26 04:57:02;;;;;;;16.93;4.93;;;;;;;19.16;98.43;101245.56;5034808;28;20036;-85
2023/06/26 04:59:27;;;;;;;18.17;5.65;;;;;;;19.14;98.51;101253.25;5017293;28;20029;-85
2023/06/26 05:01:53;;;;;;;19.73;5.97;;;;;;;19.17;98.97;101251.91;5033363;28;20065;-85
2023/06/26 05:04:18;;;;;;;18.03;5.40;;;;;;;19.20;98.13;101241.19;5016869;28;20041;-87
2023/06/26 05:06:44;;;;;;;14.13;4.95;;;;;;;19.36;97.31;101260.59;5033140;28;20401;-87
2023/06/26 05:09:10;;;;;;;15.60;5.43;;;;;;;19.46;96.80;101257.91;5033327;28;20048;-87
2023/06/26 05:11:39;;;;;;;14.93;5.03;;;;;;;19.50;95.97;101260.94;5033282;28;20036;-87
2023/06/26 05:14:06;;;;;;;20.00;5.53;;;;;;;19.50;96.11;101263.69;5033147;28;20032;-86
2023/06/26 05:16:32;;;;;;;17.37;5.87;;;;;;;19.44;96.64;101279.34;5033975;28;20038;-89
2023/06/26 05:18:58;;;;;;;14.65;5.10;;;;;;;19.49;95.52;101265.63;5016669;28;20541;-86
2023/06/26 05:21:24;;;;;;;14.77;4.47;;;;;;;19.48;95.88;101263.97;5016627;28;20036;-86
2023/06/26 05:23:51;;;;;;;14.55;5.07;;;;;;;19.51;95.42;101279.94;5033152;28;20052;-90
2023/06/26 05:26:17;;;;;;;17.35;5.35;;;;;;;19.50;95.45;101285.69;5017010;28;20040;-90
2023/06/26 05:28:48;;;;;;;15.90;4.90;;;;;;;19.58;95.14;101285.22;5032877;28;20124;-87
2023/06/26 05:31:13;;;;;;;17.33;5.40;;;;;;;19.74;93.77;101286.97;5017227;28;20030;-85
2023/06/26 05:33:42;;;;;;;13.55;4.30;;;;;;;19.78;92.76;101279.03;5032617;28;20358;-86
2023/06/26 05:36:09;;;;;;;17.23;4.80;;;;;;;19.72;93.03;101291.06;5032725;28;20367;-86
2023/06/26 05:38:35;;;;;;;15.23;4.05;;;;;;;19.69;92.08;101302.63;5032339;28;20026;-86
2023/06/26 05:41:01;;;;;;;17.50;4.68;;;;;;;19.54;91.77;101295.91;5032561;28;20377;-87
2023/06/26 05:43:26;;;;;;;13.27;4.28;;;;;;;19.41;92.65;101288.13;5032581;28;20025;-87
2023/06/26 05:45:51;;;;;;;18.63;4.30;;;;;;;19.38;93.22;101296.91;5033641;28;20495;-85
2023/06/26 05:48:17;;;;;;;18.27;4.73;;;;;;;19.31;92.65;101299.91;4999338;28;20054;-86
2023/06/26 05:50:43;;;;;;;13.82;4.05;;;;;;;19.26;93.24;101303.41;5032122;28;20367;-87
2023/06/26 05:53:12;;;;;;;13.90;4.67;;;;;;;19.20;93.17;101309.97;5032375;28;20034;-86
2023/06/26 05:55:38;;;;;;;19.80;4.60;;;;;;;19.28;93.55;101312.25;5015822;28;20044;-86
2023/06/26 05:58:03;;;;;;;17.40;3.92;;;;;;;19.31;92.54;101310.91;5015959;28;20474;-86
2023/06/26 06:00:29;;;;;;;11.57;4.00;;;;;;;19.36;92.03;101323.88;5033596;28;20210;-86
2023/06/26 06:02:55;;;;;;;17.75;4.05;;;;;;;19.33;90.31;101333.47;5015673;28;20895;-84
2023/06/26 06:05:21;;;;;;;13.10;3.87;;;;;;;19.40;90.49;101339.56;5032302;28;20048;-87
2023/06/26 06:07:47;;;;;;;13.55;3.55;;;;;;;19.49;89.05;101328.06;5015647;28;20037;-90
2023/06/26 06:10:12;;;;;;;14.93;3.77;;;;;;;19.58;88.66;101332.00;5034074;28;20499;-90
2023/06/26 06:12:38;;;;;;;17.15;3.95;;;;;;;19.68;86.60;101331.22;5016155;28;20025;-90
2023/06/26 06:15:05;;;;;;;11.57;3.47;;;;;;;19.66;86.06;101339.75;5015815;28;20035;-90
2023/06/26 06:17:30;;;;;;;18.17;4.07;;;;;;;19.66;86.06;101341.69;5032406;28;20076;-89
2023/06/26 06:19:56;;;;;;;12.43;3.33;;;;;;;19.73;86.81;101350.56;5033412;28;20057;-89
2023/06/26 06:22:21;;;;;;;16.58;3.30;;;;;;;19.71;85.59;101352.72;5016707;28;20087;-90
2023/06/26 06:24:48;;;;;;;8.80;2.97;;;;;;;19.77;85.53;101352.50;5033114;28;20572;-90
2023/06/26 06:27:14;;;;;;;11.18;3.28;;;;;;;19.82;84.08;101348.16;5032794;28;20030;-91
2023/06/26 06:29:40;;;;;;;10.40;2.70;;;;;;;19.88;84.73;101347.09;5000555;28;20368;-91
2023/06/26 06:32:06;;;;;;;14.67;3.13;;;;;;;19.94;83.39;101357.03;5032792;28;20030;-91
2023/06/26 06:34:31;;;;;;;12.95;2.95;;;;;;;19.97;82.27;101353.75;5016208;28;20038;-90
2023/06/26 06:36:57;;;;;;;9.77;2.63;;;;;;;19.96;81.86;101349.34;5034026;28;20037;-91
2023/06/26 06:39:22;;;;;;;9.63;2.73;;;;;;;19.94;81.86;101368.88;5032271;28;20291;-90
2023/06/26 06:41:47;;;;;;;9.93;2.63;;;;;;;19.94;81.95;101363.38;5002381;28;20116;-90
2023/06/26 06:44:13;;;;;;;8.43;2.63;;;;;;;20.04;82.33;101365.38;5036596;28;20473;-90
2023/06/26 06:46:38;;;;;;;6.27;2.30;;;;;;;20.10;81.33;101368.97;5035658;28;20044;-91
2023/06/26 06:49:04;;;;;;;7.57;2.50;;;;;;;20.12;81.53;101378.66;5035410;28;20141;-89
2023/06/26 06:51:29;;;;;;;13.23;2.77;;;;;;;20.15;82.40;101391.03;5036360;28;20133;-91
2023/06/26 06:53:54;;;;;;;10.97;3.20;;;;;;;20.15;80.28;101375.34;5036271;28;20033;-90
2023/06/26 06:56:23;;;;;;;10.77;2.47;;;;;;;20.15;80.99;101380.00;5035939;28;20477;-91
2023/06/26 06:58:48;;;;;;;7.95;2.47;;;;;;;20.21;80.63;101391.91;5019563;28;20108;-90
2023/06/26 07:01:14;;;;;;;10.03;3.03;;;;;;;20.27;80.41;101388.06;5037251;28;20049;-90
2023/06/26 07:03:40;;;;;;;8.43;2.60;;;;;;;20.35;79.91;101403.28;5039149;28;20089;-90
2023/06/26 07:06:05;;;;;;;10.67;3.10;;;;;;;20.40;79.45;101406.88;5036915;28;20091;-90
2023/06/26 07:08:30;;;;;;;8.27;3.03;;;;;;;20.55;79.21;101402.53;5036354;28;20029;-90
2023/06/26 07:10:59;;;;;;;6.17;2.93;;;;;;;20.73;77.85;101415.88;5036266;28;20308;-90
2023/06/26 07:13:25;;;;;;;15.48;3.22;;;;;;;21.11;76.77;101411.03;5036332;28;20029;-90
2023/06/26 07:15:51;;;;;;;15.17;3.07;;;;;;;21.35;75.29;101416.03;5035394;28;20112;-90
2023/06/26 07:18:16;;;;;;;6.63;2.10;;;;;;;21.49;73.92;101414.38;5037557;28;20091;-90
2023/06/26 07:20:44;;;;;;;9.18;2.45;;;;;;;21.63;72.83;101419.38;5019694;28;20037;-89
2023/06/26 07:23:10;;;;;;;8.73;2.05;;;;;;;21.65;72.39;101431.00;5035909;28;20065;-89
2023/06/26 07:25:35;;;;;;;7.83;2.20;;;;;;;21.75;72.55;101432.91;5036712;28;20508;-90
2023/06/26 07:28:01;;;;;;;11.15;2.85;;;;;;;21.58;72.35;101427.66;5036014;28;20044;-90
2023/06/26 07:30:26;;;;;;;13.10;2.60;;;;;;;21.30;73.28;101433.38;5035841;28;20044;-91
2023/06/26 07:32:52;;;;;;;11.20;2.67;;;;;;;21.17;74.05;101431.16;5035692;28;20034;-90
2023/06/26 07:35:17;;;;;;;12.32;2.63;;;;;;;21.33;73.95;101448.59;5037452;28;20034;-89
2023/06/26 07:37:43;;;;;;;11.27;3.13;;;;;;;21.42;73.33;101449.72;5035707;28;20030;-89
2023/06/26 07:40:09;;;;;;;9.70;2.70;;;;;;;21.71;73.69;101463.00;5035145;28;20030;-88
2023/06/26 07:42:34;;;;;;;6.53;2.75;;;;;;;21.67;71.86;101465.50;5035063;28;20026;-84
2023/06/26 07:45:00;;;;;;;14.10;2.47;;;;;;;21.50;71.43;101462.16;5034046;28;20118;-86
2023/06/26 07:47:25;;;;;;;7.00;2.37;;;;;;;21.44;70.75;101450.25;5034439;28;20167;-86
2023/06/26 07:49:51;;;;;;;8.48;2.28;;;;;;;21.33;71.00;101454.09;5034778;28;20486;-86
2023/06/26 07:52:18;;;;;;;6.87;2.30;;;;;;;21.11;70.48;101455.19;5017827;28;20022;-86
2023/06/26 07:54:43;;;;;;;8.52;1.95;;;;;;;21.07;70.99;101465.09;5034594;28;20032;-86
2023/06/26 07:57:12;;;;;;;5.40;2.07;;;;;;;21.02;71.02;101467.81;5034551;28;20037;-86
2023/06/26 07:59:38;;;;;;;6.78;2.03;;;;;;;21.14;71.61;101476.69;5035643;28;20117;-86
2023/06/26 08:02:03;;;;;;;6.77;2.00;;;;;;;21.32;67.92;101469.03;5036070;28;20104;-88
2023/06/26 08:04:31;;;;;;;4.77;1.70;;;;;;;21.50;65.70;101475.94;5034373;28;20276;-87
2023/06/26 08:06:58;;;;;;;5.07;1.60;;;;;;;21.78;64.14;101462.75;5035906;28;20025;-86
2023/06/26 08:09:26;;;;;;;7.13;1.63;;;;;;;22.01;61.72;101478.75;5035709;28;20119;-85
2023/06/26 08:11:51;;;;;;;5.70;1.57;;;;;;;21.94;58.37;101497.56;5035966;28;20088;-85
2023/06/26 08:14:17;;;;;;;12.95;1.83;;;;;;;21.90;57.56;101490.91;5035295;28;20033;-85
2023/06/26 08:16:44;;;;;;;3.00;1.38;;;;;;;21.79;58.23;101498.38;5034938;28;20037;-86
2023/06/26 08:19:10;;;;;;;3.23;1.67;;;;;;;21.40;58.29;101484.22;5018059;28;20425;-86
2023/06/26 08:21:35;;;;;;;5.45;1.20;;;;;;;21.20;59.74;101485.81;5017652;28;20523;-86
2023/06/26 08:24:02;;;;;;;5.43;1.40;;;;;;;21.06;60.10;101495.72;5034333;28;20033;-86
2023/06/26 08:26:27;;;;;;;3.85;1.30;;;;;;;21.01;59.88;101489.06;5035272;28;20048;-86
2023/06/26 08:28:56;;;;;;;3.47;1.33;;;;;;;20.96;60.04;101493.72;5034052;28;20029;-86
2023/06/26 08:31:21;;;;;;;4.40;1.20;;;;;;;20.97;61.64;101481.59;5034953;28;20389;-86
2023/06/26 08:33:47;;;;;;;5.33;1.20;;;;;;;21.01;63.00;101488.25;5033838;28;20029;-87
2023/06/26 08:36:13;;;;;;;4.72;1.40;;;;;;;21.12;63.59;101500.97;5033803;28;20064;-86
2023/06/26 08:38:41;;;;;;;4.50;1.15;;;;;;;21.28;63.43;101485.28;5033556;28;20026;-86
2023/06/26 08:41:07;;;;;;;5.37;1.10;;;;;;;21.40;61.25;101482.28;5017889;28;20469;-86
2023/06/26 08:43:36;;;;;;;4.35;1.77;;;;;;;21.52;60.70;101495.84;5033679;28;20036;-86
2023/06/26 08:46:02;;;;;;;4.18;1.33;;;;;;;21.65;61.17;101494.50;5033302;28;20041;-87
2023/06/26 08:48:31;;;;;;;4.78;1.10;;;;;;;21.71;61.47;101493.38;5033238;28;20502;-87
2023/06/26 08:50:58;;;;;;;3.73;1.30;;;;;;;21.79;61.45;101516.88;5033613;28;20021;-88
2023/06/26 08:53:30;;;;;;;5.10;1.50;;;;;;;21.59;62.04;101509.41;5033563;28;20017;-87
2023/06/26 08:55:57;;;;;;;6.43;1.42;;;;;;;21.52;62.47;101513.22;5031938;28;20036;-86
2023/06/26 08:58:23;;;;;;;5.10;1.42;;;;;;;21.40;59.63;101525.63;5014662;28;20037;-93
2023/06/26 09:00:49;;;;;;;4.55;1.40;;;;;;;21.34;58.74;101511.78;5016679;28;20037;-90
2023/06/26 09:03:15;;;;;;;7.40;1.20;;;;;;;21.44;57.23;101518.44;5016018;28;20034;-88
2023/06/26 09:05:41;;;;;;;7.80;1.10;;;;;;;21.51;55.87;101530.06;5025504;28;20128;-88
2023/06/26 09:08:07;;;;;;;8.63;1.13;;;;;;;21.54;56.29;101524.03;5017901;28;20025;-88
2023/06/26 09:10:35;;;;;;;3.10;1.10;;;;;;;21.68;56.00;101525.13;5022786;28;20034;-90
2023/06/26 09:13:02;;;;;;;6.85;1.63;;;;;;;21.96;55.49;101519.38;5026308;28;20060;-88
2023/06/26 09:15:45;;;;;;;4.15;1.20;;;;;;;22.12;54.68;101521.03;5018619;28;20037;-88
2023/06/26 09:18:12;;;;;;;4.45;1.40;;;;;;;22.31;55.05;101520.44;5023067;28;20037;-89
2023/06/26 09:20:37;;;;;;;5.97;1.50;;;;;;;22.26;55.76;101526.81;5022222;28;20091;-88
2023/06/26 09:23:05;;;;;;;3.75;1.38;;;;;;;22.23;55.03;101532.88;5021446;28;20029;-89
2023/06/26 09:25:31;;;;;;;3.50;1.50;;;;;;;21.91;53.37;101522.97;5025103;28;20071;-89
2023/06/26 09:27:57;;;;;;;3.00;0.90;;;;;;;21.89;53.79;101517.72;5020002;28;20049;-88
2023/06/26 09:30:22;;;;;;;3.03;1.10;;;;;;;21.88;54.07;101549.19;5013034;28;20497;-86
2023/06/26 09:32:51;;;;;;;2.27;1.23;;;;;;;21.84;52.92;101531.50;5020890;28;20110;-86
2023/06/26 09:35:16;;;;;;;6.65;1.30;;;;;;;21.96;53.41;101533.19;5022988;28;20033;-90
2023/06/26 09:37:43;;;;;;;9.07;1.23;;;;;;;22.16;53.36;101541.47;5026896;28;20052;-88
2023/06/26 09:40:09;;;;;;;7.18;1.35;;;;;;;22.39;52.76;101547.56;5025973;28;20034;-88
2023/06/26 09:42:35;;;;;;;6.05;1.10;;;;;;;22.46;50.51;101547.28;5025589;28;20033;-88
2023/06/26 09:45:01;;;;;;;3.17;1.20;;;;;;;22.41;50.40;101562.78;5025369;28;20034;-90
2023/06/26 09:47:31;;;;;;;2.90;1.10;;;;;;;22.34;49.72;101569.69;5016163;28;20433;-88
2023/06/26 09:49:59;;;;;;;3.25;0.85;;;;;;;22.24;49.62;101565.78;5016301;28;20446;-88
2023/06/26 09:52:28;;;;;;;3.23;1.37;;;;;;;22.46;50.39;101591.53;5022610;28;20048;-88
2023/06/26 09:55:08;;;;;;;6.57;1.20;;;;;;;22.39;48.63;101589.84;5023143;28;20047;-90
2023/06/26 09:57:35;;;;;;;14.55;1.50;;;;;;;22.34;49.31;101572.47;5032460;28;20477;-84
2023/06/26 10:00:01;;;;;;;3.58;1.00;;;;;;;22.67;49.42;101561.91;5032225;28;20116;-87
2023/06/26 10:02:27;;;;;;;5.13;1.23;;;;;;;22.82;49.13;101561.84;5033687;28;20029;-86
2023/06/26 10:04:55;;;;;;;2.47;0.90;;;;;;;22.72;47.61;101586.78;5032255;28;20048;-88
2023/06/26 10:07:22;;;;;;;4.43;0.80;;;;;;;22.56;44.44;101597.88;5032636;28;20040;-86
2023/06/26 10:09:51;;;;;;;5.30;1.13;;;;;;;22.59;45.51;101580.72;5032122;28;20030;-86
2023/06/26 10:12:30;;;;;;;5.20;1.40;;;;;;;22.63;44.74;101583.75;5033481;28;20037;-86
2023/06/26 10:14:57;;;;;;;3.70;0.80;;;;;;;22.63;45.27;101591.22;5031650;28;20018;-86
2023/06/26 10:17:28;;;;;;;2.53;1.00;;;;;;;22.74;44.17;101584.56;5015776;28;20041;-88
2023/06/26 10:19:56;;;;;;;3.08;0.90;;;;;;;22.86;43.58;101579.53;5033637;28;20064;-87
2023/06/26 10:22:29;;;;;;;4.68;1.00;;;;;;;22.98;43.54;101586.72;5033544;28;20087;-88
2023/06/26 10:24:58;;;;;;;2.13;0.90;;;;;;;23.17;43.20;101575.91;5032089;28;20029;-88
2023/06/26 10:27:27;;;;;;;5.75;1.15;;;;;;;23.26;42.40;101588.03;5033263;28;20095;-89
2023/06/26 10:30:00;;;;;;;3.08;1.02;;;;;;;23.25;44.07;101583.59;5033228;28;20037;-88
2023/06/26 10:32:27;;;;;;;3.45;1.30;;;;;;;23.21;44.38;101580.56;5033249;28;20037;-88
2023/06/26 10:34:54;;;;;;;4.60;0.80;;;;;;;23.25;43.92;101597.44;5032113;28;20358;-88
2023/06/26 10:37:19;;;;;;;3.43;1.00;;;;;;;23.45;43.96;101580.72;5032071;28;20071;-88
2023/06/26 10:39:51;;;;;;;5.40;0.90;;;;;;;23.17;43.14;101598.03;5031889;28;20025;-88
2023/06/26 10:42:18;;;;;;;4.80;1.10;;;;;;;23.13;43.01;101595.00;5032196;28;20025;-89
2023/06/26 10:44:45;;;;;;;5.47;1.33;;;;;;;23.26;42.67;101588.84;5031970;28;20030;-88
2023/06/26 10:47:31;;;;;;;2.50;0.90;;;;;;;23.48;38.47;101623.66;5031422;28;20030;-89
2023/06/26 10:49:59;;;;;;;7.35;0.90;;;;;;;23.77;39.10;101607.16;5031579;28;20049;-88
2023/06/26 10:52:26;;;;;;;4.35;1.08;;;;;;;24.25;39.38;101602.97;5031848;28;20048;-88
2023/06/26 10:54:55;;;;;;;5.13;0.97;;;;;;;24.38;37.95;101616.16;5031594;28;20436;-88
2023/06/26 10:57:25;;;;;;;3.65;1.10;;;;;;;24.72;39.09;101593.13;5031698;28;20397;-89
2023/06/26 11:00:10;;;;;;;1.80;0.98;;;;;;;24.72;38.34;101590.34;5033264;28;20033;-88
2023/06/26 11:02:55;;;;;;;3.50;1.23;;;;;;;24.82;38.21;101614.41;5033215;28;20485;-89
2023/06/26 11:05:26;;;;;;;4.47;1.15;;;;;;;24.76;36.88;101630.28;5030973;28;20041;-89
2023/06/26 11:08:07;;;;;;;6.87;1.30;;;;;;;24.57;38.99;101621.00;5031656;28;20072;-90
2023/06/26 11:10:59;;;;;;;4.43;1.00;;;;;;;24.72;37.97;101623.66;5031566;28;20075;-89
2023/06/26 11:13:26;;;;;;;2.33;1.00;;;;;;;24.71;36.56;101632.28;5032561;28;20113;-88
2023/06/26 11:15:51;;;;;;;5.25;0.85;;;;;;;24.96;35.99;101625.63;4998505;28;20032;-88
2023/06/26 11:18:17;;;;;;;2.83;1.13;;;;;;;24.71;34.52;101626.72;5031624;28;20037;-88
2023/06/26 11:20:42;;;;;;;3.17;0.87;;;;;;;24.99;35.49;101648.06;5031600;28;20048;-88
2023/06/26 11:23:09;;;;;;;4.13;1.63;;;;;;;25.80;35.13;101627.94;5031321;28;20383;-88
2023/06/26 11:25:38;;;;;;;3.13;1.23;;;;;;;27.76;32.04;101618.84;5031387;28;20034;-86